Terminal Aerodrome Forecast
Issued by NWS Atlanta, GA

Home | Current Version | Previous Version | Text Only | Print | Product List | Glossary On
Versions: 1 2 3 4 5 6 7 8 9 10 11 12 13 14 15 16 17 18
000
FTUS42 KFFC 061851 AAA
TAFMCN
TAF AMD
KMCN 061851Z 0619/0718 26006KT P6SM BKN035
      TEMPO 0619/0621 VRB10G20KT 5SM SHRA BKN025
     FM062100 26006KT P6SM VCSH SCT050
     FM070200 00000KT P6SM SCT230
     FM071600 28005KT P6SM FEW045=

USA.gov is the U.S. government's official web portal to all federal, state and local government web resources and services.